Hlavní strana
METAR-TAF:

METAR-TAF

Letiště :

Letiště Odense

Odense, Dánsko

zeměpisná šířka: 55-29N, zeměpisná délka: 010-20E, výška: 17 m

Aktuální stav počasí

Zpráva byla vytvořena před 11 hodinami a 58 minutami, v 15:50 UTC
Východní vítr 2 kt
Teplota 4°C
Vlhkost vzduchu 93%
Tlak 1015 hPa
Viditelnost 10 km a více
Žádná oblačnost pod 1500 m, nevyskytují se cumulonimby.

METAR: EKOD 171550Z 08002KT CAVOK 04/03 Q1015

Čas: 04:48 (03:48 UTC)

Předpověď počasí

Zpráva byla vytvořena před 18 hodinami a 49 minutami, v 08:59 UTC
Předpověď platná od 17 v 09 UTC do 17 v 14 UTC
Jižní vítr 8 kt
Viditelnost: 7000 m

TAF: EKOD 170859Z 1709/1714 18008KT 7000 NSC

Stav a předpovědi počasí z více než 4 000 letišť (zprávy METAR a TAF).

Červené a žluté tečky na mapě představují dostupné meteorologické stanice.

Když kurzor umístíte na tečku, zobrazí se název stanice.

Pak kliknutím zobrazíte stav a předpověď počasí.

Chcete-li změnit mapu, kliknutím na zelené tlačítko se znaménkem +mapu přiblížíte, kliknutím na zelené tlačítko se znaménkem – mapu oddálíte a kliknutím na zelené šipky přejdete na sousední mapy.


METAR-TAF: